Time;durP1;ratioP1;P1;durP2;ratioP2;P2;SDS_P1;SDS_P2;PMS_P1;PMS_P2;Temp;Humidity;BMP_temperature;BMP_pressure;BME280_temperature;BME280_humidity;BME280_pressure;Samples;Min_cycle;Max_cycle;Signal;HPM_P1;HPM_P2
2021/10/30 00:03:25;;;;;;;16.97;13.87;;;;;;;5.86;100.00;100691.41;20995069;28;20234;-73
2021/10/30 00:13:29;;;;;;;17.43;13.80;;;;;;;5.67;100.00;100698.34;20994163;28;20231;-71
2021/10/30 00:23:34;;;;;;;14.57;11.27;;;;;;;5.34;100.00;100706.59;20992893;28;20227;-72
2021/10/30 00:33:38;;;;;;;16.13;12.27;;;;;;;5.04;100.00;100713.03;20992578;28;20280;-72
2021/10/30 00:43:44;;;;;;;16.97;13.03;;;;;;;4.78;100.00;100707.75;20991539;28;20675;-72
2021/10/30 00:53:47;;;;;;;15.37;12.17;;;;;;;4.48;100.00;100713.16;20991068;28;20858;-71
2021/10/30 01:03:53;;;;;;;20.40;15.17;;;;;;;4.27;100.00;100706.78;20989127;28;20234;-72
2021/10/30 01:13:57;;;;;;;20.37;14.60;;;;;;;4.40;100.00;100701.97;20989474;28;20237;-71
2021/10/30 01:34:04;;;;;;;20.63;15.30;;;;;;;4.74;100.00;100693.78;20976491;27;20582;-73
2021/10/30 01:44:07;;;;;;;18.27;13.97;;;;;;;4.83;100.00;100687.34;20974685;28;20688;-73
2021/10/30 01:54:12;;;;;;;17.93;13.87;;;;;;;4.77;100.00;100676.94;20974333;28;20253;-72
2021/10/30 02:04:16;;;;;;;19.60;14.17;;;;;;;4.58;100.00;100682.03;20973757;28;20719;-72
2021/10/30 02:14:21;;;;;;;18.67;14.03;;;;;;;4.62;100.00;100681.84;20972732;28;20227;-73
2021/10/30 02:24:25;;;;;;;18.40;14.03;;;;;;;4.63;100.00;100674.78;20971661;28;20257;-73
2021/10/30 02:34:30;;;;;;;19.23;14.47;;;;;;;4.72;100.00;100682.38;20971264;28;20851;-73
2021/10/30 02:54:33;;;;;;;18.40;14.97;;;;;;;4.77;100.00;100679.59;20901556;28;20404;-73
2021/10/30 03:04:37;;;;;;;28.50;22.53;;;;;;;4.65;100.00;100684.38;20892167;28;20223;-72
2021/10/30 03:14:42;;;;;;;38.97;23.43;;;;;;;4.59;100.00;100689.00;20890920;28;20293;-73
2021/10/30 03:24:45;;;;;;;70.47;31.00;;;;;;;4.68;100.00;100697.50;20890738;28;20241;-73
2021/10/30 03:34:50;;;;;;;53.37;27.00;;;;;;;4.61;100.00;100703.91;20889912;28;20231;-73
2021/10/30 03:54:53;;;;;;;34.93;20.73;;;;;;;4.26;100.00;100696.28;20977608;27;20581;-73
2021/10/30 04:04:57;;;;;;;62.83;35.40;;;;;;;4.16;100.00;100702.78;20975198;28;20237;-72
2021/10/30 04:15:02;;;;;;;41.30;24.27;;;;;;;4.19;100.00;100700.03;20974618;28;20719;-72
2021/10/30 04:25:06;;;;;;;35.57;21.57;;;;;;;4.13;100.00;100694.94;20971211;28;20314;-73
2021/10/30 04:35:11;;;;;;;30.47;19.37;;;;;;;4.08;100.00;100703.03;20972460;28;20313;-72
2021/10/30 04:45:15;;;;;;;30.30;19.27;;;;;;;3.96;100.00;100688.44;20971756;28;20740;-73
2021/10/30 04:55:20;;;;;;;27.90;17.77;;;;;;;3.92;100.00;100685.94;20970560;28;20230;-73
2021/10/30 05:05:24;;;;;;;56.87;34.67;;;;;;;3.87;100.00;100672.84;20919665;28;20250;-73
2021/10/30 05:15:29;;;;;;;26.20;18.27;;;;;;;3.98;100.00;100667.28;20912109;28;20310;-73
2021/10/30 05:45:34;;;;;;;49.47;21.73;;;;;;;4.21;100.00;100677.97;20900229;28;20605;-73
2021/10/30 05:55:38;;;;;;;49.10;23.00;;;;;;;4.52;100.00;100666.34;20803594;28;20242;-70
2021/10/30 06:05:43;;;;;;;53.33;22.90;;;;;;;4.76;100.00;100691.09;20806875;28;20315;-66
2021/10/30 06:15:47;;;;;;;66.60;24.90;;;;;;;5.05;100.00;100704.16;20808211;28;20311;-67
2021/10/30 06:25:52;;;;;;;63.30;26.73;;;;;;;5.49;100.00;100696.38;20807565;28;20307;-68
2021/10/30 06:35:56;;;;;;;47.63;23.63;;;;;;;5.89;100.00;100706.38;20806132;28;20264;-67
2021/10/30 06:46:01;;;;;;;30.33;17.17;;;;;;;6.26;100.00;100713.72;20806079;28;20332;-67
2021/10/30 06:56:05;;;;;;;58.27;24.70;;;;;;;6.62;100.00;100717.50;20754619;28;20234;-67
2021/10/30 07:06:10;;;;;;;55.77;43.17;;;;;;;7.01;100.00;100716.72;20750013;28;20309;-68
2021/10/30 07:16:16;;;;;;;74.73;31.50;;;;;;;7.41;100.00;100714.06;20744310;28;20595;-80
2021/10/30 07:26:22;;;;;;;60.93;26.97;;;;;;;7.85;100.00;100729.75;20742023;28;20286;-69
2021/10/30 07:36:26;;;;;;;56.80;25.53;;;;;;;8.25;100.00;100724.28;20741112;28;20318;-68
2021/10/30 07:46:31;;;;;;;64.80;26.77;;;;;;;8.64;100.00;100728.63;20741896;28;20570;-72
2021/10/30 07:56:35;;;;;;;22.30;14.87;;;;;;;9.17;100.00;100717.06;20744172;28;20303;-73
2021/10/30 08:06:40;;;;;;;18.23;13.50;;;;;;;9.69;100.00;100725.78;20743703;28;20220;-72
2021/10/30 08:16:44;;;;;;;15.27;12.90;;;;;;;10.13;100.00;100726.03;20736883;28;20248;-72
2021/10/30 08:26:50;;;;;;;17.10;12.50;;;;;;;10.50;100.00;100729.31;20708482;28;20227;-71
2021/10/30 08:36:53;;;;;;;16.07;13.33;;;;;;;10.78;100.00;100721.41;20742388;28;20236;-71
2021/10/30 08:47:00;;;;;;;28.67;18.63;;;;;;;11.06;100.00;100710.81;20742571;28;20585;-71
2021/10/30 08:57:04;;;;;;;42.97;22.90;;;;;;;11.37;100.00;100709.78;20741347;28;20243;-71
2021/10/30 09:07:14;;;;;;;63.93;27.03;;;;;;;11.71;100.00;100692.50;20723316;28;20311;-70
2021/10/30 09:17:22;;;;;;;70.07;27.97;;;;;;;12.04;99.32;100694.91;20740198;28;20718;-71
2021/10/30 09:27:49;;;;;;;41.93;21.00;;;;;;;12.36;90.89;100691.94;20738391;28;20281;-72
2021/10/30 09:37:53;;;;;;;29.60;19.27;;;;;;;12.68;95.70;100684.47;20720550;28;20319;-71
2021/10/30 09:48:01;;;;;;;27.83;16.97;;;;;;;12.96;95.06;100679.81;20719259;28;20226;-76
2021/10/30 09:58:06;;;;;;;31.77;22.67;;;;;;;13.24;94.24;100675.25;20738236;28;20256;-68
2021/10/30 10:08:12;;;;;;;49.93;24.07;;;;;;;13.50;92.76;100668.06;20720952;28;20694;-68
2021/10/30 10:18:16;;;;;;;24.00;15.43;;;;;;;14.10;91.24;100668.16;20674303;28;20312;-69
2021/10/30 10:28:23;;;;;;;12.93;11.07;;;;;;;14.90;86.72;100663.06;20665095;28;20229;-68
2021/10/30 10:38:56;;;;;;;16.67;11.50;;;;;;;15.12;71.75;100645.16;20670825;28;20898;-68
2021/10/30 10:49:15;;;;;;;11.53;10.33;;;;;;;14.87;75.70;100642.66;20658333;28;20226;-68
2021/10/30 10:59:19;;;;;;;12.90;10.17;;;;;;;14.83;82.23;100632.28;20669179;28;20233;-68
2021/10/30 11:09:24;;;;;;;16.27;12.73;;;;;;;14.94;80.65;100616.19;20668714;28;20226;-69
2021/10/30 11:19:33;;;;;;;15.83;11.67;;;;;;;15.08;81.23;100602.53;20725977;28;20228;-66
2021/10/30 11:29:48;;;;;;;11.87;9.50;;;;;;;15.22;76.19;100594.19;20730258;28;20221;-68
2021/10/30 11:39:52;;;;;;;15.00;10.70;;;;;;;15.40;77.19;100595.44;20747709;28;20316;-69
2021/10/30 11:49:59;;;;;;;11.53;9.70;;;;;;;15.53;74.76;100581.00;20729224;28;20311;-69
2021/10/30 12:00:06;;;;;;;19.47;17.60;;;;;;;15.66;72.79;100566.47;20688014;28;20230;-72
2021/10/30 12:10:23;;;;;;;33.87;18.53;;;;;;;15.71;70.32;100553.47;20670670;28;20232;-72
2021/10/30 12:20:27;;;;;;;51.03;22.37;;;;;;;15.76;74.02;100539.66;20673298;28;20275;-70
2021/10/30 12:30:35;;;;;;;87.13;32.87;;;;;;;15.83;73.76;100532.78;20742194;28;20718;-70
2021/10/30 12:40:38;;;;;;;70.37;26.90;;;;;;;15.88;73.89;100522.50;20742953;28;20228;-71
2021/10/30 12:50:53;;;;;;;42.20;19.93;;;;;;;15.89;71.75;100513.44;20741467;28;20240;-72
2021/10/30 13:00:57;;;;;;;53.43;24.63;;;;;;;15.88;74.80;100505.50;20723722;28;20721;-72
2021/10/30 13:11:03;;;;;;;64.13;24.60;;;;;;;15.83;75.40;100495.09;20726781;28;20279;-71
2021/10/30 13:21:07;;;;;;;83.00;28.50;;;;;;;15.79;73.78;100477.53;20707625;28;20716;-72
2021/10/30 13:31:15;;;;;;;57.80;23.93;;;;;;;15.72;75.62;100479.00;20710918;28;20240;-72
2021/10/30 13:41:19;;;;;;;54.93;25.23;;;;;;;15.62;75.27;100478.06;20698091;28;20225;-72
2021/10/30 13:51:27;;;;;;;34.20;20.27;;;;;;;15.48;77.94;100490.78;20724409;28;20746;-72
2021/10/30 14:01:31;;;;;;;32.10;22.57;;;;;;;15.33;77.96;100483.97;20721432;28;20228;-72
2021/10/30 14:11:48;;;;;;;23.37;14.77;;;;;;;15.08;76.70;100479.72;20688765;23;20230;-72
2021/10/30 14:22:26;;;;;;;63.77;14.00;;;;;;;14.75;78.59;100467.13;20592709;28;20240;-73
2021/10/30 14:33:04;;;;;;;11.03;9.87;;;;;;;14.29;79.82;100455.56;20584501;28;20260;-73
2021/10/30 14:43:42;;;;;;;11.70;9.73;;;;;;;14.07;78.22;100472.47;20557455;28;20627;-73
2021/10/30 14:54:19;;;;;;;11.57;10.00;;;;;;;13.67;79.96;100455.84;20578943;28;20221;-74
2021/10/30 15:04:56;;;;;;;14.93;10.83;;;;;;;13.22;83.71;100449.41;20556272;28;20248;-73
2021/10/30 15:15:35;;;;;;;13.47;10.70;;;;;;;12.64;87.22;100445.53;20554700;28;20794;-73
2021/10/30 15:26:14;;;;;;;13.00;10.20;;;;;;;12.14;90.73;100423.16;20576021;28;20243;-73
2021/10/30 15:36:54;;;;;;;13.30;11.13;;;;;;;11.74;92.99;100424.97;20505164;28;20222;-74
2021/10/30 15:47:30;;;;;;;13.33;10.80;;;;;;;11.55;98.13;100425.38;20492101;28;20262;-72
2021/10/30 15:58:10;;;;;;;16.77;13.30;;;;;;;11.40;98.69;100425.50;20480064;28;20237;-72
2021/10/30 16:08:47;;;;;;;39.17;21.73;;;;;;;11.24;100.00;100422.13;20484865;28;20227;-72
2021/10/30 16:19:27;;;;;;;34.60;20.77;;;;;;;11.07;100.00;100407.22;20402631;28;20231;-74
2021/10/30 16:30:03;;;;;;;64.67;27.10;;;;;;;11.11;100.00;100398.88;20401378;28;21033;-73
2021/10/30 16:40:43;;;;;;;43.30;24.90;;;;;;;11.02;100.00;100394.16;20420669;28;20307;-72
2021/10/30 16:51:20;;;;;;;52.93;27.10;;;;;;;11.07;100.00;100389.38;20396503;28;20231;-73
2021/10/30 17:01:59;;;;;;;38.03;24.67;;;;;;;11.00;100.00;100380.03;20410430;28;20246;-72
2021/10/30 17:12:37;;;;;;;26.30;19.77;;;;;;;10.97;100.00;100385.59;20416863;28;20249;-71
2021/10/30 17:23:15;;;;;;;27.67;20.37;;;;;;;10.72;100.00;100390.78;20488362;28;20711;-73
2021/10/30 17:33:54;;;;;;;30.30;20.13;;;;;;;10.46;100.00;100379.97;20465358;28;20249;-72
2021/10/30 17:44:33;;;;;;;32.23;21.13;;;;;;;10.51;100.00;100365.44;20486665;28;20691;-72
2021/10/30 17:55:12;;;;;;;28.17;16.90;;;;;;;10.73;100.00;100365.81;20462901;28;20234;-67
2021/10/30 18:05:51;;;;;;;19.63;14.00;;;;;;;11.13;100.00;100359.59;20485852;28;20277;-69
2021/10/30 18:16:28;;;;;;;18.53;15.20;;;;;;;11.31;100.00;100370.88;20462297;28;20230;-68
2021/10/30 18:27:05;;;;;;;19.77;14.03;;;;;;;11.28;100.00;100367.53;20482324;28;20262;-68
2021/10/30 18:37:42;;;;;;;18.40;14.53;;;;;;;11.25;100.00;100349.03;20471630;28;20759;-69
2021/10/30 18:48:25;;;;;;;18.83;13.23;;;;;;;11.36;99.76;100341.16;20496498;28;20234;-76
2021/10/30 18:59:07;;;;;;;16.77;13.07;;;;;;;11.48;95.87;100337.66;20541480;28;20242;-74
2021/10/30 19:09:55;;;;;;;24.10;13.47;;;;;;;11.66;92.47;100330.22;20538526;28;20743;-73
2021/10/30 19:20:33;;;;;;;15.27;11.93;;;;;;;11.78;91.12;100314.25;20547399;28;20244;-74
2021/10/30 19:31:12;;;;;;;13.17;11.27;;;;;;;11.68;89.06;100329.16;20538694;28;20230;-70
2021/10/30 19:41:50;;;;;;;16.07;10.97;;;;;;;11.26;91.34;100353.44;20533669;28;20230;-68
2021/10/30 19:52:29;;;;;;;15.20;11.13;;;;;;;10.89;92.65;100345.16;20536119;28;20549;-68
2021/10/30 20:03:06;;;;;;;13.93;10.50;;;;;;;10.65;94.56;100346.75;20568782;28;20234;-68
2021/10/30 20:13:46;;;;;;;13.57;10.43;;;;;;;10.43;95.08;100326.78;20572478;28;20839;-68
2021/10/30 20:24:22;;;;;;;12.87;10.20;;;;;;;10.53;94.57;100334.19;20559196;28;20333;-68
2021/10/30 20:35:02;;;;;;;13.87;11.27;;;;;;;10.51;93.64;100355.63;20550140;28;20234;-68
2021/10/30 20:45:40;;;;;;;14.23;10.50;;;;;;;10.44;94.77;100339.19;20552952;28;20237;-68
2021/10/30 20:56:19;;;;;;;13.20;9.77;;;;;;;10.03;96.43;100370.19;20557496;28;20237;-68
2021/10/30 21:06:56;;;;;;;9.93;8.40;;;;;;;9.40;100.00;100391.75;20548597;28;20241;-68
2021/10/30 21:17:36;;;;;;;10.13;8.23;;;;;;;9.03;100.00;100391.22;20565217;28;20264;-68
2021/10/30 21:28:13;;;;;;;13.97;9.43;;;;;;;8.89;100.00;100387.59;20556465;28;20821;-70
2021/10/30 21:38:51;;;;;;;13.87;10.30;;;;;;;8.73;100.00;100389.38;20578420;28;20225;-70
2021/10/30 21:49:27;;;;;;;11.53;9.03;;;;;;;8.31;100.00;100393.44;20577824;28;20242;-69
2021/10/30 22:00:06;;;;;;;11.03;8.83;;;;;;;7.88;100.00;100384.19;20576695;28;20236;-68
2021/10/30 22:10:43;;;;;;;13.43;9.40;;;;;;;7.72;100.00;100377.97;20574754;28;20226;-69
2021/10/30 22:21:22;;;;;;;14.63;10.47;;;;;;;7.81;100.00;100382.81;20580773;28;20274;-69
2021/10/30 22:31:59;;;;;;;15.70;11.30;;;;;;;7.88;100.00;100384.19;20592025;28;20228;-68
2021/10/30 22:42:38;;;;;;;13.03;9.73;;;;;;;7.85;100.00;100401.16;20590927;28;20238;-69
2021/10/30 22:53:15;;;;;;;11.40;9.33;;;;;;;7.55;100.00;100406.25;20590164;28;20232;-68
2021/10/30 23:03:53;;;;;;;16.20;10.43;;;;;;;7.55;100.00;100413.34;20589373;28;20241;-69
2021/10/30 23:14:30;;;;;;;13.60;10.60;;;;;;;7.61;100.00;100412.19;20587315;28;20658;-68
2021/10/30 23:35:43;;;;;;;13.13;10.43;;;;;;;7.54;100.00;100422.25;20686829;27;8624129;-71
2021/10/30 23:46:19;;;;;;;13.80;10.77;;;;;;;7.44;100.00;100405.94;21058524;28;20224;-71
2021/10/30 23:57:01;;;;;;;14.77;11.00;;;;;;;7.43;100.00;100425.44;21058306;28;20258;-71
